Time;durP1;ratioP1;P1;durP2;ratioP2;P2;SDS_P1;SDS_P2;PMS_P1;PMS_P2;Temp;Humidity;BMP_temperature;BMP_pressure;BME280_temperature;BME280_humidity;BME280_pressure;Samples;Min_cycle;Max_cycle;Signal;HPM_P1;HPM_P2
2022/07/27 00:01:29;;;;;;;6.15;4.93;;;;;;;21.88;100.00;99355.69;4982584;28;20045;-77
2022/07/27 00:03:55;;;;;;;6.78;4.88;;;;;;;21.98;100.00;99339.91;4979089;28;20039;-76
2022/07/27 00:06:21;;;;;;;10.25;5.10;;;;;;;22.04;100.00;99312.97;4982084;28;20088;-77
2022/07/27 00:08:46;;;;;;;5.78;5.15;;;;;;;22.11;100.00;99322.84;4982494;28;20151;-76
2022/07/27 00:11:13;;;;;;;5.65;5.00;;;;;;;22.12;100.00;99303.81;4979605;28;20037;-76
2022/07/27 00:13:39;;;;;;;5.03;4.63;;;;;;;22.18;100.00;99294.88;4981886;28;20034;-76
2022/07/27 00:16:06;;;;;;;5.00;4.60;;;;;;;22.20;100.00;99283.91;4979598;28;20041;-77
2022/07/27 00:18:32;;;;;;;5.45;4.80;;;;;;;22.16;100.00;99278.13;4983383;28;20109;-78
2022/07/27 00:20:57;;;;;;;5.72;4.80;;;;;;;22.14;100.00;99296.38;4980433;28;20054;-77
2022/07/27 00:23:23;;;;;;;6.65;5.38;;;;;;;22.02;100.00;99320.47;4980312;28;20487;-74
2022/07/27 00:25:49;;;;;;;5.32;4.80;;;;;;;21.90;100.00;99326.75;4982089;28;20041;-74
2022/07/27 00:28:14;;;;;;;6.70;5.50;;;;;;;21.85;100.00;99351.59;4982537;28;20089;-77
2022/07/27 00:30:40;;;;;;;6.18;5.43;;;;;;;21.85;100.00;99351.59;4983058;28;20029;-76
2022/07/27 00:33:05;;;;;;;6.68;4.93;;;;;;;21.80;100.00;99331.78;4982306;28;20121;-76
2022/07/27 00:35:31;;;;;;;6.65;5.03;;;;;;;21.76;100.00;99298.34;4977690;28;20045;-76
2022/07/27 00:37:57;;;;;;;5.65;5.05;;;;;;;21.79;100.00;99297.94;4981360;28;20077;-76
2022/07/27 00:40:23;;;;;;;5.03;4.53;;;;;;;21.76;100.00;99283.06;4984919;28;20045;-77
2022/07/27 00:42:49;;;;;;;5.07;4.68;;;;;;;21.67;100.00;99256.72;4980590;28;20035;-76
2022/07/27 00:45:17;;;;;;;5.97;4.05;;;;;;;21.72;100.00;99238.09;4977566;28;20130;-76
2022/07/27 00:47:42;;;;;;;4.88;4.47;;;;;;;21.75;100.00;99248.38;4981749;28;20438;-76
2022/07/27 00:50:09;;;;;;;5.05;3.92;;;;;;;21.80;100.00;99272.69;4980326;28;20031;-76
2022/07/27 00:52:37;;;;;;;4.70;4.30;;;;;;;21.76;100.00;99283.06;4977761;28;20098;-76
2022/07/27 00:55:04;;;;;;;4.88;4.45;;;;;;;21.78;100.00;99280.16;4979920;28;20054;-76
2022/07/27 00:57:29;;;;;;;5.22;4.25;;;;;;;21.85;100.00;99270.19;4976497;28;20355;-76
2022/07/27 00:59:55;;;;;;;4.85;4.43;;;;;;;21.88;100.00;99269.72;4981925;28;20121;-76
2022/07/27 01:02:21;;;;;;;4.35;4.00;;;;;;;21.83;100.00;99283.84;4982634;28;20026;-76
2022/07/27 01:04:47;;;;;;;4.80;3.67;;;;;;;21.80;100.00;99280.75;4981931;28;20039;-77
2022/07/27 01:07:12;;;;;;;4.30;3.95;;;;;;;21.83;100.00;99261.53;4982756;28;20027;-76
2022/07/27 01:09:56;;;;;;;4.85;4.40;;;;;;;21.88;100.00;99250.94;4985430;28;20030;-77
2022/07/27 01:12:25;;;;;;;6.15;4.45;;;;;;;21.88;100.00;99229.44;4983238;28;20030;-76
2022/07/27 01:14:51;;;;;;;6.97;5.07;;;;;;;21.73;100.00;99247.78;4983394;28;20130;-76
2022/07/27 01:17:17;;;;;;;4.97;4.50;;;;;;;21.50;100.00;99235.78;4957220;23;1131024;-88
2022/07/27 01:19:43;;;;;;;4.93;4.50;;;;;;;21.53;100.00;99216.56;4987258;28;20398;-90
2022/07/27 01:22:09;;;;;;;4.78;4.38;;;;;;;21.58;100.00;99211.34;4987314;28;20474;-92
2022/07/27 01:24:35;;;;;;;5.10;4.60;;;;;;;21.47;100.00;99225.50;4987808;28;20034;-90
2022/07/27 01:27:02;;;;;;;7.45;5.25;;;;;;;21.25;100.00;99248.44;4989464;28;20034;-90
2022/07/27 01:29:29;;;;;;;5.18;4.78;;;;;;;21.19;100.00;99276.13;4987164;28;20085;-91
2022/07/27 01:31:55;;;;;;;5.70;5.10;;;;;;;21.24;100.00;99298.59;4981043;28;20042;-91
2022/07/27 01:34:21;;;;;;;5.40;4.90;;;;;;;21.32;100.00;99324.34;4989607;28;20163;-91
2022/07/27 01:36:46;;;;;;;6.13;4.80;;;;;;;21.30;100.00;99326.41;4979604;28;20564;-91
2022/07/27 01:39:13;;;;;;;6.63;5.20;;;;;;;21.35;100.00;99323.91;4985269;28;20043;-89
2022/07/27 01:41:38;;;;;;;6.25;5.60;;;;;;;21.23;100.00;99314.91;4991621;28;20030;-89
2022/07/27 01:44:04;;;;;;;7.50;5.78;;;;;;;21.10;100.00;99321.13;4996838;28;20034;-90
2022/07/27 01:46:29;;;;;;;6.70;6.07;;;;;;;21.15;100.00;99323.19;4990882;28;20053;-91
2022/07/27 01:48:55;;;;;;;6.43;5.82;;;;;;;21.17;100.00;99305.03;4973854;28;20038;-89
2022/07/27 01:51:21;;;;;;;6.78;5.82;;;;;;;21.20;100.00;99277.78;4984961;28;20490;-90
2022/07/27 01:53:46;;;;;;;8.70;6.47;;;;;;;21.24;100.00;99273.63;4982995;28;20105;-89
2022/07/27 01:56:13;;;;;;;10.13;6.60;;;;;;;21.30;100.00;99283.47;4984711;28;20472;-89
2022/07/27 01:58:39;;;;;;;7.28;6.55;;;;;;;21.37;100.00;99289.63;4985383;28;20050;-90
2022/07/27 02:01:06;;;;;;;8.02;6.28;;;;;;;21.40;100.00;99340.16;4986022;28;20126;-90
2022/07/27 02:03:32;;;;;;;19.63;6.82;;;;;;;21.37;100.00;99380.88;4980741;28;20039;-87
2022/07/27 02:05:57;;;;;;;7.40;6.63;;;;;;;21.42;100.00;99405.22;4988576;28;20447;-90
2022/07/27 02:08:23;;;;;;;7.57;6.88;;;;;;;21.31;100.00;99397.03;4984749;28;20066;-91
2022/07/27 02:13:33;;;;;;;8.18;7.43;;;;;;;21.28;100.00;99386.69;4982243;28;20479;-90
2022/07/27 02:15:59;;;;;;;7.50;6.88;;;;;;;21.22;100.00;99367.75;4983542;28;20058;-90
2022/07/27 02:18:25;;;;;;;7.35;6.65;;;;;;;21.22;100.00;99358.88;4986149;28;20034;-90
2022/07/27 02:20:51;;;;;;;8.13;7.03;;;;;;;21.23;100.00;99347.09;4994968;28;20065;-90
2022/07/27 02:23:16;;;;;;;7.18;6.57;;;;;;;21.32;100.00;99340.44;4988865;28;20046;-90
2022/07/27 02:25:42;;;;;;;8.68;7.60;;;;;;;21.24;100.00;99344.22;4987023;28;20485;-91
2022/07/27 02:28:08;;;;;;;8.82;7.80;;;;;;;21.18;100.00;99365.72;4983463;28;20086;-90
2022/07/27 02:30:34;;;;;;;8.43;7.63;;;;;;;21.07;100.00;99358.31;4984665;28;20503;-89
2022/07/27 02:32:59;;;;;;;10.60;8.18;;;;;;;21.01;100.00;99343.09;4981970;28;20038;-91
2022/07/27 02:35:25;;;;;;;9.98;7.47;;;;;;;20.98;100.00;99332.78;4985235;28;20034;-90
2022/07/27 02:37:51;;;;;;;8.40;7.70;;;;;;;21.03;100.00;99347.19;4994997;28;20034;-89
2022/07/27 02:40:18;;;;;;;8.65;7.85;;;;;;;21.10;100.00;99337.25;4990433;28;20030;-90
2022/07/27 02:42:45;;;;;;;10.02;7.97;;;;;;;21.18;100.00;99312.88;4978778;28;20047;-91
2022/07/27 02:45:10;;;;;;;9.70;7.43;;;;;;;21.29;100.00;99297.94;4997573;28;20101;-91
2022/07/27 02:47:38;;;;;;;7.90;7.20;;;;;;;21.37;100.00;99289.63;4981594;28;20063;-91
2022/07/27 02:50:05;;;;;;;8.13;7.40;;;;;;;21.44;100.00;99284.19;4980207;28;20041;-91
2022/07/27 02:52:31;;;;;;;7.57;6.88;;;;;;;21.49;100.00;99293.25;4981720;28;20027;-91
2022/07/27 02:54:57;;;;;;;7.50;6.80;;;;;;;21.55;100.00;99313.00;4982808;28;20696;-91
2022/07/27 02:57:22;;;;;;;7.90;7.20;;;;;;;21.57;100.00;99330.53;4984356;28;20035;-91
2022/07/27 02:59:48;;;;;;;7.72;7.07;;;;;;;21.53;100.00;99332.03;4983308;28;20062;-91
2022/07/27 03:02:13;;;;;;;8.63;7.82;;;;;;;21.36;100.00;99325.56;4986370;28;20069;-92
2022/07/27 03:04:39;;;;;;;8.98;8.05;;;;;;;21.28;100.00;99320.44;4984573;28;20053;-88
2022/07/27 03:07:04;;;;;;;9.43;7.80;;;;;;;21.33;100.00;99323.28;4984520;28;20030;-90
2022/07/27 03:09:30;;;;;;;9.45;7.57;;;;;;;21.39;100.00;99335.84;4984273;28;20037;-89
2022/07/27 03:11:55;;;;;;;9.98;7.40;;;;;;;21.43;100.00;99331.69;4980452;28;20038;-89
2022/07/27 03:14:21;;;;;;;8.55;7.72;;;;;;;21.36;100.00;99336.28;4981597;28;20117;-88
2022/07/27 03:16:46;;;;;;;8.38;7.57;;;;;;;21.31;100.00;99317.34;4982936;28;20043;-88
2022/07/27 03:19:11;;;;;;;8.63;7.60;;;;;;;21.31;100.00;99311.97;4981559;28;20046;-89
2022/07/27 03:21:37;;;;;;;8.63;7.75;;;;;;;21.38;100.00;99302.00;4983009;28;20041;-89
2022/07/27 03:24:03;;;;;;;8.88;7.38;;;;;;;21.43;100.00;99310.22;4982984;28;20113;-89
2022/07/27 03:26:29;;;;;;;9.43;7.07;;;;;;;21.42;100.00;99319.31;4981962;28;20419;-88
2022/07/27 03:28:56;;;;;;;8.23;7.22;;;;;;;21.40;100.00;99315.19;4976256;28;20035;-88
2022/07/27 03:31:22;;;;;;;7.50;6.90;;;;;;;21.35;100.00;99320.38;4985284;28;20034;-89
2022/07/27 03:33:47;;;;;;;8.90;7.97;;;;;;;21.29;100.00;99313.22;4982225;28;20452;-90
2022/07/27 03:36:12;;;;;;;8.85;7.95;;;;;;;21.19;100.00;99311.00;4983034;28;20037;-90
2022/07/27 03:38:38;;;;;;;8.93;8.13;;;;;;;21.17;100.00;99310.41;4998383;28;20403;-90
2022/07/27 03:41:03;;;;;;;8.80;8.00;;;;;;;21.15;100.00;99323.19;4984834;28;20059;-89
2022/07/27 03:43:29;;;;;;;8.90;8.15;;;;;;;21.14;100.00;99311.63;4985305;28;20073;-89
2022/07/27 03:45:55;;;;;;;10.15;8.30;;;;;;;21.14;100.00;99310.81;4990803;28;20038;-92
2022/07/27 03:48:20;;;;;;;9.55;8.75;;;;;;;21.08;100.00;99311.69;4992173;28;20085;-92
2022/07/27 03:50:45;;;;;;;9.23;7.78;;;;;;;21.12;100.00;99315.56;4978611;28;20062;-91
2022/07/27 03:53:11;;;;;;;9.55;8.50;;;;;;;21.20;100.00;99304.63;4982798;28;20153;-89
2022/07/27 03:55:36;;;;;;;9.68;8.77;;;;;;;21.29;100.00;99307.84;4984395;28;20029;-89
2022/07/27 03:58:02;;;;;;;9.95;8.90;;;;;;;21.35;100.00;99306.97;4982573;28;20038;-90
2022/07/27 04:00:27;;;;;;;10.05;8.50;;;;;;;21.42;100.00;99307.75;4984730;28;20531;-90
2022/07/27 04:02:53;;;;;;;8.63;7.82;;;;;;;21.48;100.00;99306.88;4984403;28;20047;-90
2022/07/27 04:05:19;;;;;;;9.00;8.25;;;;;;;21.51;100.00;99307.25;4985169;28;20030;-90
2022/07/27 04:07:45;;;;;;;9.25;8.35;;;;;;;21.51;100.00;99312.63;4978124;28;20475;-90
2022/07/27 04:10:10;;;;;;;10.80;8.70;;;;;;;21.49;100.00;99314.72;4982716;28;20037;-90
2022/07/27 04:12:37;;;;;;;9.52;8.40;;;;;;;21.53;100.00;99312.41;4984913;28;20038;-91
2022/07/27 04:15:04;;;;;;;10.75;8.18;;;;;;;21.54;100.00;99312.19;4983043;28;20027;-90
2022/07/27 04:17:30;;;;;;;10.60;8.95;;;;;;;21.53;100.00;99313.22;4982400;28;20042;-90
2022/07/27 04:19:55;;;;;;;9.63;8.70;;;;;;;21.56;100.00;99310.09;4974517;28;20049;-90
2022/07/27 04:22:21;;;;;;;13.38;9.85;;;;;;;21.41;100.00;99312.28;4984992;28;20038;-91
2022/07/27 04:24:46;;;;;;;9.88;8.98;;;;;;;21.30;100.00;99312.19;4979675;28;20039;-90
2022/07/27 04:27:12;;;;;;;9.73;8.93;;;;;;;21.11;100.00;99301.31;4985337;28;20477;-92
2022/07/27 04:29:37;;;;;;;10.63;9.70;;;;;;;20.96;100.00;99308.88;4984375;28;20039;-91
2022/07/27 04:32:03;;;;;;;14.77;10.57;;;;;;;20.90;100.00;99303.53;4981530;28;20115;-90
2022/07/27 04:34:29;;;;;;;11.60;10.35;;;;;;;20.79;100.00;99295.13;4985507;28;20073;-89
2022/07/27 04:36:54;;;;;;;13.20;11.05;;;;;;;20.79;100.00;99292.44;4978420;28;20484;-90
2022/07/27 04:39:20;;;;;;;13.32;11.32;;;;;;;20.79;100.00;99287.06;4987042;28;20462;-90
2022/07/27 04:41:45;;;;;;;12.15;11.02;;;;;;;20.79;100.00;99283.59;4982212;28;20123;-89
2022/07/27 04:44:11;;;;;;;11.00;9.98;;;;;;;20.87;100.00;99282.50;4981964;28;20098;-90
2022/07/27 04:46:37;;;;;;;12.27;11.13;;;;;;;20.99;100.00;99288.81;4989307;28;20038;-89
2022/07/27 04:49:02;;;;;;;13.68;11.48;;;;;;;20.91;100.00;99291.78;4979738;28;20035;-90
2022/07/27 04:51:28;;;;;;;12.98;11.40;;;;;;;20.94;100.00;99285.97;4998689;28;20039;-88
2022/07/27 04:53:53;;;;;;;13.82;11.55;;;;;;;20.90;100.00;99287.44;5002088;28;20038;-88
2022/07/27 04:56:19;;;;;;;12.85;10.98;;;;;;;20.92;100.00;99288.03;4998881;28;20070;-89
2022/07/27 04:58:44;;;;;;;11.85;10.65;;;;;;;21.03;100.00;99287.38;4993946;28;20050;-89
2022/07/27 05:01:11;;;;;;;13.82;11.98;;;;;;;21.09;100.00;99289.16;4983978;28;20528;-81
2022/07/27 05:03:38;;;;;;;15.30;10.77;;;;;;;21.14;100.00;99289.34;4979761;28;20371;-81
2022/07/27 05:06:04;;;;;;;12.75;11.45;;;;;;;21.10;100.00;99288.13;4981413;28;20162;-80
2022/07/27 05:08:30;;;;;;;12.85;11.60;;;;;;;21.10;100.00;99288.13;4981380;28;20441;-80
2022/07/27 05:10:55;;;;;;;12.75;11.52;;;;;;;21.16;100.00;99288.09;4972303;28;20070;-81
2022/07/27 05:13:21;;;;;;;13.27;11.98;;;;;;;21.06;100.00;99292.28;4981926;28;20031;-78
2022/07/27 05:15:46;;;;;;;13.13;11.32;;;;;;;20.98;100.00;99287.16;4982791;28;20780;-78
2022/07/27 05:18:12;;;;;;;14.52;11.68;;;;;;;21.00;100.00;99288.59;4982257;28;20030;-79
2022/07/27 05:20:37;;;;;;;13.30;11.70;;;;;;;21.06;100.00;99300.34;4982456;28;20030;-78
2022/07/27 05:23:03;;;;;;;15.45;12.13;;;;;;;21.19;100.00;99302.97;4978831;28;20031;-80
2022/07/27 05:25:28;;;;;;;13.70;12.20;;;;;;;;;;4983384;28;20069;-77
2022/07/27 05:27:54;;;;;;;15.30;13.70;;;;;;;21.32;100.00;99307.41;4981691;28;20085;-80
2022/07/27 05:30:20;;;;;;;13.93;12.65;;;;;;;21.29;100.00;99314.03;4984510;28;20140;-76
2022/07/27 05:32:46;;;;;;;14.25;12.68;;;;;;;21.34;100.00;99313.38;4981289;28;20039;-79
2022/07/27 05:35:12;;;;;;;15.32;12.82;;;;;;;21.34;100.00;99299.94;4983486;28;20034;-78
2022/07/27 05:37:38;;;;;;;15.65;13.45;;;;;;;21.40;100.00;99309.81;4981675;28;20026;-78
2022/07/27 05:40:06;;;;;;;17.20;13.57;;;;;;;21.45;100.00;99301.94;4981955;28;20494;-79
2022/07/27 05:42:31;;;;;;;14.75;13.23;;;;;;;21.53;100.00;99310.53;4975386;28;20030;-79
2022/07/27 05:44:57;;;;;;;14.18;12.57;;;;;;;21.53;100.00;99305.19;4983905;28;20038;-79
2022/07/27 05:47:22;;;;;;;14.02;12.52;;;;;;;21.61;100.00;99301.41;4984291;28;20026;-77
2022/07/27 05:49:48;;;;;;;16.95;14.20;;;;;;;21.69;100.00;99313.72;4985334;28;20368;-79
2022/07/27 05:52:13;;;;;;;14.48;12.90;;;;;;;21.79;100.00;99312.19;4984757;28;20049;-78
2022/07/27 05:54:40;;;;;;;15.07;13.55;;;;;;;21.88;100.00;99301.97;4984493;28;20023;-79
2022/07/27 05:57:06;;;;;;;13.32;11.93;;;;;;;21.95;100.00;99313.50;4984930;28;20035;-77
2022/07/27 05:59:31;;;;;;;14.55;12.70;;;;;;;22.02;100.00;99314.25;4983671;28;20111;-79
2022/07/27 06:01:58;;;;;;;14.65;12.70;;;;;;;22.01;100.00;99313.44;4984469;28;20128;-79
2022/07/27 06:04:24;;;;;;;15.00;12.63;;;;;;;21.96;100.00;99318.66;4984818;28;20438;-79
2022/07/27 06:09:34;;;;;;;16.15;14.07;;;;;;;21.95;100.00;99324.25;4998490;28;20076;-78
2022/07/27 06:11:59;;;;;;;17.40;13.38;;;;;;;21.86;100.00;99322.84;4983656;28;20213;-78
2022/07/27 06:14:25;;;;;;;17.10;14.73;;;;;;;21.83;100.00;99342.09;4975232;28;20049;-78
2022/07/27 06:16:50;;;;;;;13.95;12.48;;;;;;;21.82;100.00;99325.16;4977680;28;20462;-78
2022/07/27 06:19:16;;;;;;;14.32;12.93;;;;;;;21.89;100.00;99325.09;4983234;28;20038;-80
2022/07/27 06:21:41;;;;;;;14.60;13.02;;;;;;;21.97;100.00;99330.22;4977570;28;20415;-80
2022/07/27 06:24:07;;;;;;;15.30;13.50;;;;;;;22.07;100.00;99327.84;4965639;28;20034;-79
2022/07/27 06:26:32;;;;;;;16.85;13.82;;;;;;;22.15;100.00;99324.84;4967955;28;20030;-78
2022/07/27 06:29:00;;;;;;;15.32;13.82;;;;;;;22.15;100.00;99334.81;4964832;28;20306;-78
2022/07/27 06:31:27;;;;;;;16.13;13.05;;;;;;;22.16;100.00;99331.88;4977805;28;20053;-76
2022/07/27 06:33:56;;;;;;;15.95;14.00;;;;;;;22.19;100.00;99342.19;4976083;28;20430;-80
2022/07/27 06:36:23;;;;;;;16.73;14.15;;;;;;;22.18;100.00;99339.72;4969173;28;20026;-78
2022/07/27 06:38:48;;;;;;;13.80;12.43;;;;;;;22.21;100.00;99341.94;4969866;28;20080;-79
2022/07/27 06:41:14;;;;;;;15.00;12.85;;;;;;;22.30;100.00;99338.75;4978222;28;20031;-80
2022/07/27 06:43:40;;;;;;;17.00;13.98;;;;;;;22.37;100.00;99344.91;4962804;28;20035;-79
2022/07/27 06:46:11;;;;;;;14.95;13.45;;;;;;;22.43;100.00;99346.69;4969597;28;20050;-78
2022/07/27 06:48:38;;;;;;;15.55;13.88;;;;;;;22.52;100.00;99351.75;4962564;28;20114;-83
2022/07/27 06:51:03;;;;;;;17.20;13.35;;;;;;;22.63;100.00;99348.31;4966982;28;20042;-80
2022/07/27 06:53:29;;;;;;;20.15;12.85;;;;;;;22.73;100.00;99348.66;4982073;28;20121;-80
2022/07/27 06:55:57;;;;;;;15.82;13.05;;;;;;;22.86;100.00;99353.84;4971533;28;20023;-79
2022/07/27 06:58:22;;;;;;;13.27;11.98;;;;;;;22.95;100.00;99357.88;4966711;28;20039;-81
2022/07/27 07:00:48;;;;;;;13.70;12.35;;;;;;;23.00;100.00;99359.88;4970191;28;20506;-81
2022/07/27 07:03:14;;;;;;;13.25;11.85;;;;;;;22.98;100.00;99361.97;4971068;28;20047;-82
2022/07/27 07:05:43;;;;;;;12.07;10.95;;;;;;;23.04;100.00;99361.88;4967956;28;20093;-83
2022/07/27 07:08:10;;;;;;;12.35;11.13;;;;;;;23.17;100.00;99361.69;4973943;28;20035;-84
2022/07/27 07:10:38;;;;;;;10.82;9.93;;;;;;;23.32;100.00;99363.16;4971766;28;20113;-83
2022/07/27 07:13:05;;;;;;;15.50;11.90;;;;;;;23.43;100.00;99370.44;4978278;28;20045;-84
2022/07/27 07:15:31;;;;;;;11.52;10.43;;;;;;;23.50;100.00;99363.13;4978771;28;20047;-83
2022/07/27 07:17:56;;;;;;;9.18;8.48;;;;;;;23.66;100.00;99359.75;4968189;28;20407;-84
2022/07/27 07:20:22;;;;;;;10.70;8.80;;;;;;;23.78;100.00;99363.28;4968799;28;20105;-84
2022/07/27 07:22:47;;;;;;;10.00;9.18;;;;;;;23.84;100.00;99362.34;4964051;28;20047;-85
2022/07/27 07:25:13;;;;;;;11.10;10.10;;;;;;;23.88;100.00;99363.50;4970250;28;20039;-84
2022/07/27 07:27:38;;;;;;;10.35;9.35;;;;;;;23.89;100.00;99365.16;4978280;28;20092;-85
2022/07/27 07:30:04;;;;;;;10.40;9.55;;;;;;;23.94;100.00;99357.19;4983391;28;20355;-80
2022/07/27 07:32:30;;;;;;;9.60;8.63;;;;;;;23.99;100.00;99349.22;4962462;28;20031;-86
2022/07/27 07:34:56;;;;;;;8.82;8.02;;;;;;;23.99;100.00;99349.22;4963222;28;20173;-85
2022/07/27 07:37:21;;;;;;;9.25;8.32;;;;;;;24.14;100.00;99350.63;4968402;28;20026;-82
2022/07/27 07:39:47;;;;;;;8.07;7.15;;;;;;;24.24;100.00;99345.50;4973620;28;20133;-82
2022/07/27 07:42:12;;;;;;;9.95;7.78;;;;;;;24.35;100.00;99344.66;4982041;28;20043;-81
2022/07/27 07:44:38;;;;;;;7.38;6.60;;;;;;;24.47;100.00;99348.16;4974005;28;20072;-79
2022/07/27 07:47:04;;;;;;;7.93;7.07;;;;;;;24.58;100.00;99341.09;4981003;28;20442;-82
2022/07/27 07:49:29;;;;;;;7.30;6.57;;;;;;;24.50;100.00;99330.69;4979002;28;20030;-81
2022/07/27 07:51:55;;;;;;;7.45;6.60;;;;;;;24.57;100.00;99334.03;4979475;28;20043;-83
2022/07/27 07:54:20;;;;;;;7.85;6.38;;;;;;;24.68;100.00;99334.00;4976744;28;20038;-81
2022/07/27 07:56:46;;;;;;;10.25;6.80;;;;;;;24.73;100.00;99327.91;4981402;28;20046;-81
2022/07/27 07:59:11;;;;;;;6.85;6.18;;;;;;;24.76;100.00;99333.66;4974093;28;20093;-82
2022/07/27 08:01:37;;;;;;;7.35;5.70;;;;;;;24.84;100.00;99330.56;4970582;28;20050;-86
2022/07/27 08:04:02;;;;;;;5.90;5.40;;;;;;;24.88;100.00;99320.97;4966787;28;20041;-84
2022/07/27 08:06:28;;;;;;;6.55;5.95;;;;;;;24.91;100.00;99324.25;4968828;28;20065;-83
2022/07/27 08:08:54;;;;;;;7.05;6.35;;;;;;;24.84;100.00;99333.28;4971264;28;20038;-81
2022/07/27 08:11:20;;;;;;;12.48;6.75;;;;;;;24.70;100.00;99326.50;4979007;28;20400;-81
2022/07/27 08:13:45;;;;;;;8.23;5.75;;;;;;;24.69;100.00;99316.78;4974400;28;20030;-81
2022/07/27 08:16:11;;;;;;;5.68;5.15;;;;;;;24.72;100.00;99327.09;4968783;28;20035;-81
2022/07/27 08:18:36;;;;;;;5.30;4.80;;;;;;;24.80;100.00;99318.59;4972075;28;20495;-82
2022/07/27 08:21:02;;;;;;;6.57;6.00;;;;;;;24.90;100.00;99317.22;4973853;28;20042;-82
2022/07/27 08:23:28;;;;;;;6.13;5.63;;;;;;;24.98;100.00;99319.50;4978377;28;20037;-81
2022/07/27 08:25:53;;;;;;;7.00;5.03;;;;;;;25.04;100.00;99313.97;4973268;28;20120;-80
2022/07/27 08:28:19;;;;;;;5.88;5.25;;;;;;;25.06;100.00;99319.13;4977263;28;20042;-82
2022/07/27 08:30:45;;;;;;;5.88;4.80;;;;;;;25.11;100.00;99308.41;4976363;28;20042;-83
2022/07/27 08:33:11;;;;;;;5.57;5.18;;;;;;;25.13;100.00;99320.63;4975519;28;20031;-82
2022/07/27 08:35:36;;;;;;;6.13;4.97;;;;;;;25.19;100.00;99316.13;4978755;28;20035;-79
2022/07/27 08:38:04;;;;;;;5.57;5.00;;;;;;;25.26;100.00;99308.69;4975122;28;20541;-78
2022/07/27 08:40:31;;;;;;;5.90;4.95;;;;;;;25.33;100.00;99311.25;4975583;28;20042;-78
2022/07/27 08:42:59;;;;;;;5.25;4.75;;;;;;;25.37;100.00;99315.09;4968957;28;20034;-77
2022/07/27 08:45:25;;;;;;;4.53;4.22;;;;;;;25.37;99.71;99313.22;4969930;28;20026;-80
2022/07/27 08:47:51;;;;;;;6.72;4.20;;;;;;;25.34;98.98;99313.69;4969008;28;20041;-79
2022/07/27 08:50:24;;;;;;;5.35;4.95;;;;;;;25.42;99.99;99312.47;4986521;28;20374;-78
2022/07/27 08:52:56;;;;;;;4.72;4.32;;;;;;;25.33;99.79;99309.34;4962413;28;20058;-77
2022/07/27 08:55:23;;;;;;;4.88;4.38;;;;;;;25.40;100.00;99307.31;4982595;28;20034;-79
2022/07/27 08:57:51;;;;;;;5.00;4.50;;;;;;;25.46;99.58;99303.63;4969676;28;20488;-79
2022/07/27 09:00:17;;;;;;;5.00;4.60;;;;;;;25.39;97.19;99305.66;4975199;28;20121;-82
2022/07/27 09:02:44;;;;;;;6.68;5.22;;;;;;;25.40;100.00;99304.59;4980189;28;20050;-79
2022/07/27 09:05:10;;;;;;;7.82;4.93;;;;;;;25.41;100.00;99298.13;4983834;28;20030;-81
2022/07/27 09:07:36;;;;;;;5.68;5.18;;;;;;;25.44;100.00;99300.38;4970221;28;20033;-80
2022/07/27 09:10:03;;;;;;;7.38;4.43;;;;;;;25.54;100.00;99302.41;4983095;28;20415;-83
2022/07/27 09:12:31;;;;;;;5.00;4.60;;;;;;;25.53;100.00;99288.06;4979047;28;20026;-85
2022/07/27 09:15:12;;;;;;;5.70;4.72;;;;;;;25.63;100.00;99285.56;4978795;28;20030;-85
2022/07/27 09:17:41;;;;;;;4.97;4.45;;;;;;;25.71;100.00;99291.59;4974222;28;20051;-82
2022/07/27 09:20:15;;;;;;;7.32;4.70;;;;;;;25.75;98.49;99303.56;4979408;28;20372;-82
2022/07/27 09:22:49;;;;;;;5.53;4.15;;;;;;;25.82;97.94;99299.63;4983178;28;20487;-81
2022/07/27 09:25:17;;;;;;;4.20;3.90;;;;;;;25.92;97.11;99298.97;4975640;28;20031;-82
2022/07/27 09:27:44;;;;;;;4.38;3.58;;;;;;;25.99;95.00;99294.19;4982378;28;20100;-81
2022/07/27 09:30:17;;;;;;;4.13;3.83;;;;;;;26.03;94.42;99296.16;4986190;28;20475;-82
2022/07/27 09:32:56;;;;;;;4.65;4.25;;;;;;;26.11;93.66;99297.59;4979987;28;20640;-81
2022/07/27 09:35:32;;;;;;;4.45;4.15;;;;;;;25.87;90.89;99302.41;4973255;28;20041;-81
2022/07/27 09:38:21;;;;;;;4.32;3.97;;;;;;;25.90;91.69;99306.50;4987369;28;20030;-82
2022/07/27 09:40:56;;;;;;;4.00;3.70;;;;;;;25.95;92.48;99293.06;4983815;28;20047;-81
2022/07/27 09:43:22;;;;;;;4.40;3.72;;;;;;;26.06;92.08;99300.25;4984782;28;20049;-81
2022/07/27 09:45:48;;;;;;;5.43;4.10;;;;;;;26.07;91.10;99286.47;4979467;28;20035;-82
2022/07/27 09:48:16;;;;;;;4.80;3.72;;;;;;;26.16;90.91;99294.97;4984821;28;20394;-81
2022/07/27 09:50:44;;;;;;;4.22;3.83;;;;;;;26.08;89.23;99281.88;4982777;28;20033;-81
2022/07/27 09:53:21;;;;;;;4.80;3.90;;;;;;;26.07;88.78;99281.06;4985285;28;20041;-82
2022/07/27 09:56:00;;;;;;;3.95;3.33;;;;;;;26.16;90.17;99284.16;4980639;28;20038;-82
2022/07/27 09:58:37;;;;;;;3.95;3.58;;;;;;;26.27;89.22;99291.34;4982824;28;20058;-82
2022/07/27 10:01:02;;;;;;;4.00;3.70;;;;;;;26.33;88.80;99290.34;4985005;28;20085;-80
2022/07/27 10:03:29;;;;;;;4.47;4.07;;;;;;;26.41;88.60;99287.22;4984305;28;20027;-81
2022/07/27 10:05:54;;;;;;;3.63;3.35;;;;;;;26.48;87.30;99287.84;4983342;28;20113;-81
2022/07/27 10:08:21;;;;;;;4.18;3.70;;;;;;;26.58;87.02;99284.44;4983429;28;20035;-81
2022/07/27 10:10:47;;;;;;;3.58;3.28;;;;;;;26.60;86.01;99293.13;4984745;28;20039;-82
2022/07/27 10:13:12;;;;;;;4.20;3.80;;;;;;;26.60;84.13;99284.19;4983476;28;20037;-81
2022/07/27 10:15:41;;;;;;;4.45;3.35;;;;;;;26.60;84.12;99284.19;4981215;28;20043;-82
2022/07/27 10:18:15;;;;;;;5.32;3.67;;;;;;;26.65;83.64;99276.94;4979115;28;20035;-82
2022/07/27 10:20:43;;;;;;;3.65;3.33;;;;;;;26.71;84.04;99273.22;4985147;28;20110;-81
2022/07/27 10:23:25;;;;;;;3.00;2.80;;;;;;;26.81;83.34;99275.19;4987508;28;20460;-81
2022/07/27 10:26:11;;;;;;;4.50;2.95;;;;;;;26.92;83.25;99265.34;4988878;28;20049;-79
2022/07/27 10:28:51;;;;;;;3.63;3.20;;;;;;;26.96;81.88;99270.00;4986233;28;20073;-81
2022/07/27 10:31:23;;;;;;;5.18;3.15;;;;;;;26.91;80.92;99269.94;4984972;28;20035;-81
2022/07/27 10:33:53;;;;;;;3.17;2.97;;;;;;;26.89;81.03;99266.66;4984156;28;20043;-80
2022/07/27 10:36:21;;;;;;;3.55;3.10;;;;;;;26.89;79.71;99270.19;4981246;28;20030;-80
2022/07/27 10:38:55;;;;;;;2.92;2.72;;;;;;;26.98;78.89;99265.13;4983787;28;20368;-81
2022/07/27 10:41:22;;;;;;;3.40;2.78;;;;;;;27.07;78.11;99258.19;4984527;28;20463;-81
2022/07/27 10:43:49;;;;;;;4.03;2.70;;;;;;;27.14;76.36;99256.09;4983092;28;20030;-81
2022/07/27 10:46:19;;;;;;;2.92;2.72;;;;;;;27.20;76.32;99252.34;4980736;28;20035;-81
2022/07/27 10:48:46;;;;;;;2.80;2.55;;;;;;;27.33;75.76;99251.09;4981160;28;20035;-82
2022/07/27 10:51:11;;;;;;;2.90;2.60;;;;;;;27.41;74.49;99253.31;4985274;28;20039;-81
2022/07/27 10:53:42;;;;;;;3.30;2.67;;;;;;;27.49;73.60;99244.72;4974375;28;20049;-81
2022/07/27 10:56:08;;;;;;;;;;;;;;;27.56;73.51;99234.50;4982450;28;20127;-80
2022/07/27 10:58:34;;;;;;;2.88;2.63;;;;;;;27.58;74.05;99231.50;4980183;28;19922;-81
2022/07/27 11:01:01;;;;;;;3.13;2.83;;;;;;;27.61;74.38;99241.84;4981637;28;20042;-81
2022/07/27 11:03:32;;;;;;;3.30;3.00;;;;;;;27.67;73.77;99229.94;4981008;28;20100;-81
2022/07/27 11:06:03;;;;;;;5.03;2.70;;;;;;;27.70;73.90;99229.41;4984500;28;20030;-82
2022/07/27 11:08:32;;;;;;;2.80;2.42;;;;;;;27.68;73.51;99220.75;4983091;28;20117;-81
2022/07/27 11:10:58;;;;;;;3.08;2.75;;;;;;;27.65;73.11;99226.69;4984014;28;20030;-81
2022/07/27 11:13:25;;;;;;;2.78;2.40;;;;;;;27.67;73.25;99213.69;4984086;28;20101;-81
2022/07/27 11:16:00;;;;;;;2.55;2.35;;;;;;;27.80;72.45;99218.66;4978163;28;20436;-81
2022/07/27 11:18:35;;;;;;;2.65;2.45;;;;;;;27.98;70.30;99220.88;4966427;28;20030;-81
2022/07/27 11:21:25;;;;;;;2.63;2.42;;;;;;;28.14;67.45;99212.88;4946389;28;20045;-82
2022/07/27 11:23:55;;;;;;;;;;;;;;;28.23;66.52;99222.13;4964043;28;20178;-79
2022/07/27 11:26:23;;;;;;;2.50;2.30;;;;;;;28.22;64.57;99209.63;4965576;28;19918;-80
2022/07/27 11:28:50;;;;;;;2.40;2.10;;;;;;;28.18;64.61;99213.97;4964201;28;20042;-80